Asuncion, Paraguay

9:40 AM PYST on November 26, 2014 (GMT -0300)
Silvio Pettirossi International | Change Station
CLOSE
Current Station
Airport
Location: Asuncion,
Elevation: 292 ft
Nearby Weather Stations

Elev 292 ft 25.25 °S, 57.52 °W | Updated 10 minutes ago

Partly Cloudy
Partly Cloudy
81 °F
Feels Like 85 °F
N
9
Wind Variable Wind from SSE

Today
High -- | Low -- °F
--% Chance of Precip.
Yesterday
High -- | Low -- °F
Precip. -- in
5:51 AM 7:23 PM
Waxing Crescent, 19% visible
Pressure 29.80 in
Visibility 6.2 miles
Clouds Few 3300 ft
Heat Index 85 °F
Dew Point 72 °F
Humidity 74%
Rainfall 0.00 in
Snow Depth Not available.
UV 8 out of 12
Pollen Not available.
Air Quality Not available.
Flu Activity Not available.
METAR SGAS 261230Z 16008KT 100V190 9999 FEW033 27/22 Q1009

More Conditions Fewer Conditions

Pressure 29.80 in
Visibility 6.2 miles
Clouds Few 3300 ft
Heat Index 85 °F
Dew Point 72 °F
Humidity 74%
Rainfall 0.00 in
Snow Depth Not available.
UV 8 out of 12
Pollen Not available.
Air Quality Not available.
Flu Activity Not available.
METAR SGAS 261230Z 16008KT 100V190 9999 FEW033 27/22 Q1009

More Conditions Fewer Conditions

10-Day Weather Forecast

Almanac

Astronomy

Nov. 26, 2014 Rise Set
Actual Time
Civil Twilight
Nautical Twilight
Astronomical Twilight
Moon
Length of Visible Light
Length of Day
Tomorrow will be .
, % of the Moon is Illuminated

Today's Extremes

Country Highs Country Lows

Community

WunderPhotos

Upload Photos

1,773,715 photos uploaded!

WunderBlogs® & News

Nearby

Air Quality

  Air Quality AQ Index Pollutant
Not available.

Snow Depth

Station Depth Elevation

Earthquake Activity

City Distance Mag. Time & Date
Minimum magnitude displayed is 2.5.

Coastal Water Temperatures

Place Temperature

Nearby Weather Stations